Time;durP1;ratioP1;P1;durP2;ratioP2;P2;SDS_P1;SDS_P2;PMS_P1;PMS_P2;Temp;Humidity;BMP_temperature;BMP_pressure;BME280_temperature;BME280_humidity;BME280_pressure;Samples;Min_cycle;Max_cycle;Signal;HPM_P1;HPM_P2
2020/12/15 00:02:24;;;;;;;50.50;17.60;;;;;;;1.79;97.54;96461.31;4937970;28;20043;-64
2020/12/15 00:04:50;;;;;;;45.83;16.65;;;;;;;1.72;97.90;96456.38;4941014;28;20043;-63
2020/12/15 00:07:15;;;;;;;48.70;18.15;;;;;;;1.53;96.95;96451.25;4937473;28;20530;-62
2020/12/15 00:09:41;;;;;;;59.42;17.80;;;;;;;1.55;97.64;96456.31;4942957;28;20147;-65
2020/12/15 00:12:06;;;;;;;53.80;18.70;;;;;;;1.51;97.46;96467.78;4937046;28;20039;-64
2020/12/15 00:14:31;;;;;;;59.03;19.00;;;;;;;1.44;97.61;96467.44;4941076;28;20444;-65
2020/12/15 00:16:58;;;;;;;49.97;17.90;;;;;;;1.63;97.67;96456.34;4940912;28;20046;-65
2020/12/15 00:19:23;;;;;;;44.97;16.38;;;;;;;1.78;97.59;96446.22;4937213;28;20276;-64
2020/12/15 00:21:49;;;;;;;46.85;17.85;;;;;;;1.79;97.17;96455.91;4942555;28;20445;-64
2020/12/15 00:24:15;;;;;;;40.92;15.73;;;;;;;1.93;96.81;96456.56;4937054;28;20106;-65
2020/12/15 00:26:40;;;;;;;44.40;16.67;;;;;;;2.06;96.01;96447.50;4942064;28;20504;-64
2020/12/15 00:29:05;;;;;;;42.63;16.10;;;;;;;2.09;95.58;96449.59;4937332;28;20047;-65
2020/12/15 00:31:35;;;;;;;44.08;15.98;;;;;;;2.12;95.96;96460.88;4941235;28;20047;-63
2020/12/15 00:34:02;;;;;;;40.83;16.55;;;;;;;2.09;94.84;96451.50;4941979;28;20555;-64
2020/12/15 00:36:27;;;;;;;59.70;17.05;;;;;;;1.73;95.67;96466.09;4932857;29;20819;-61
2020/12/15 00:38:54;;;;;;;49.35;16.20;;;;;;;1.49;96.77;96459.16;4940520;28;20044;-63
2020/12/15 00:41:19;;;;;;;50.05;17.55;;;;;;;1.73;96.71;96452.56;4935339;28;20067;-64
2020/12/15 00:43:44;;;;;;;42.33;17.50;;;;;;;1.86;96.44;96446.22;4941792;28;20543;-64
2020/12/15 00:46:14;;;;;;;50.65;16.08;;;;;;;1.47;96.74;96445.19;4937667;28;20109;-64
2020/12/15 00:48:40;;;;;;;59.00;17.38;;;;;;;1.19;97.89;96447.34;4942063;28;20139;-62
2020/12/15 00:51:05;;;;;;;51.42;18.40;;;;;;;1.12;98.60;96439.69;4937604;28;20043;-66
2020/12/15 00:53:31;;;;;;;51.15;18.35;;;;;;;1.25;98.83;96456.88;4938959;29;20051;-66
2020/12/15 00:55:56;;;;;;;55.78;19.92;;;;;;;1.25;98.26;96459.59;4942583;28;20043;-63
2020/12/15 00:58:21;;;;;;;47.67;17.95;;;;;;;1.36;98.38;96464.72;4937665;28;20185;-63
2020/12/15 01:00:47;;;;;;;52.85;18.92;;;;;;;1.41;98.33;96478.84;4942684;28;20497;-63
2020/12/15 01:03:13;;;;;;;45.22;17.88;;;;;;;1.55;98.74;96475.22;4933317;28;20553;-64
2020/12/15 01:05:38;;;;;;;53.28;18.42;;;;;;;1.52;97.54;96471.25;4942978;28;20570;-64
2020/12/15 01:08:04;;;;;;;46.28;18.52;;;;;;;1.33;97.93;96458.81;4938636;28;20042;-65
2020/12/15 01:10:29;;;;;;;56.03;20.10;;;;;;;1.36;98.00;96475.50;4935674;29;20051;-64
2020/12/15 01:12:54;;;;;;;49.05;17.90;;;;;;;1.12;98.22;96463.97;4942032;28;20043;-64
2020/12/15 01:15:20;;;;;;;52.03;19.77;;;;;;;1.13;98.95;96470.16;4941740;28;20128;-65
2020/12/15 01:17:46;;;;;;;58.28;20.40;;;;;;;1.12;99.66;96472.06;4957852;28;20043;-64
2020/12/15 01:20:11;;;;;;;60.45;21.30;;;;;;;1.02;99.53;96461.53;4954795;28;20054;-63
2020/12/15 01:22:36;;;;;;;59.08;19.60;;;;;;;1.20;99.74;96451.63;4952415;28;20043;-64
2020/12/15 01:25:02;;;;;;;59.50;20.42;;;;;;;1.17;99.29;96437.97;4947397;28;20043;-63
2020/12/15 01:27:27;;;;;;;62.17;21.02;;;;;;;1.23;99.33;96444.81;4943312;28;20084;-65
2020/12/15 01:29:53;;;;;;;56.38;20.10;;;;;;;1.26;99.76;96447.69;4943770;28;20503;-65
2020/12/15 01:32:18;;;;;;;54.83;19.90;;;;;;;1.39;99.46;96432.50;4938881;28;20043;-64
2020/12/15 01:34:43;;;;;;;58.80;19.83;;;;;;;1.20;98.90;96410.38;4946395;28;20039;-64
2020/12/15 01:37:09;;;;;;;65.95;19.98;;;;;;;1.21;99.05;96409.28;4940090;28;20082;-64
2020/12/15 01:39:34;;;;;;;65.15;20.95;;;;;;;1.34;99.11;96441.50;4944814;28;20043;-62
2020/12/15 01:42:00;;;;;;;64.65;21.52;;;;;;;1.50;99.19;96444.56;4947797;28;20043;-64
2020/12/15 01:44:25;;;;;;;54.05;19.88;;;;;;;1.76;98.64;96459.25;4941739;28;20138;-63
2020/12/15 01:46:51;;;;;;;56.50;19.20;;;;;;;1.49;97.60;96444.88;4946016;28;20133;-64
2020/12/15 01:49:18;;;;;;;60.83;19.73;;;;;;;1.38;98.74;96441.69;4940625;28;20109;-64
2020/12/15 01:51:48;;;;;;;61.75;20.75;;;;;;;1.20;99.84;96431.94;4945895;28;20047;-64
2020/12/15 01:54:13;;;;;;;69.78;22.27;;;;;;;1.12;100.00;96434.31;4939253;28;20043;-64
2020/12/15 01:56:39;;;;;;;76.63;22.25;;;;;;;1.15;100.00;96440.97;4944977;28;20551;-64
2020/12/15 01:59:05;;;;;;;81.18;23.77;;;;;;;1.06;100.00;96418.56;4938147;28;20039;-64
2020/12/15 02:01:43;;;;;;;88.53;25.45;;;;;;;1.03;100.00;96406.50;4944075;28;20102;-64
2020/12/15 02:04:09;;;;;;;95.20;26.05;;;;;;;1.00;100.00;96400.94;4940652;28;20487;-63
2020/12/15 02:06:34;;;;;;;102.40;26.92;;;;;;;1.00;100.00;96396.34;4945522;28;20039;-64
2020/12/15 02:09:00;;;;;;;96.53;26.73;;;;;;;1.06;100.00;96365.44;4945905;28;20051;-63
2020/12/15 02:11:27;;;;;;;96.53;25.98;;;;;;;1.11;100.00;96391.44;4939893;28;20103;-65
2020/12/15 02:13:53;;;;;;;100.18;26.73;;;;;;;1.29;100.00;96385.00;4945028;28;20035;-63
2020/12/15 02:16:18;;;;;;;99.38;26.73;;;;;;;1.24;100.00;96381.66;4937596;28;20515;-63
2020/12/15 02:18:44;;;;;;;103.97;27.15;;;;;;;1.29;100.00;96376.09;4945359;28;20044;-63
2020/12/15 02:21:09;;;;;;;110.95;31.52;;;;;;;1.19;100.00;96336.75;4939266;28;20062;-63
2020/12/15 02:23:35;;;;;;;116.68;29.90;;;;;;;1.19;100.00;96335.94;4944803;28;20043;-64
2020/12/15 02:26:03;;;;;;;126.95;29.92;;;;;;;1.14;100.00;96324.19;4945274;28;20407;-62
2020/12/15 02:28:29;;;;;;;142.10;32.78;;;;;;;1.13;100.00;96305.63;4942360;28;20071;-63
2020/12/15 02:30:54;;;;;;;137.93;29.85;;;;;;;1.15;100.00;96303.41;4944872;28;20063;-63
2020/12/15 02:33:19;;;;;;;120.53;27.52;;;;;;;1.22;100.00;96321.81;4939447;28;20055;-63
2020/12/15 02:35:45;;;;;;;126.03;31.45;;;;;;;1.35;100.00;96328.97;4944526;28;20050;-62
2020/12/15 02:38:10;;;;;;;118.63;30.35;;;;;;;1.32;100.00;96351.22;4938279;28;20070;-62
2020/12/15 02:40:36;;;;;;;136.25;28.98;;;;;;;1.42;100.00;96347.41;4944495;28;20082;-64
2020/12/15 02:43:01;;;;;;;107.13;28.50;;;;;;;1.38;100.00;96355.34;4943561;28;20115;-66
2020/12/15 02:45:26;;;;;;;101.82;27.38;;;;;;;1.42;100.00;96369.78;4940782;28;20039;-63
2020/12/15 02:47:52;;;;;;;98.80;28.10;;;;;;;1.54;100.00;96358.38;4941731;28;20050;-62
2020/12/15 02:50:22;;;;;;;98.30;24.85;;;;;;;1.71;100.00;96346.78;4939905;28;20106;-65
2020/12/15 02:52:47;;;;;;;86.75;25.42;;;;;;;1.91;100.00;96334.56;4946739;28;20090;-64
2020/12/15 02:55:13;;;;;;;76.30;23.38;;;;;;;2.03;100.00;96323.88;4951498;28;20039;-65
2020/12/15 02:57:38;;;;;;;75.47;23.27;;;;;;;2.00;100.00;96329.94;4952169;28;20392;-64
2020/12/15 03:00:09;;;;;;;78.88;23.35;;;;;;;2.03;100.00;96315.78;4944396;28;20101;-64
2020/12/15 03:02:34;;;;;;;88.28;22.77;;;;;;;1.91;100.00;96312.94;4943939;28;20046;-64
2020/12/15 03:04:59;;;;;;;68.57;22.98;;;;;;;1.86;99.44;96313.91;4942073;28;20043;-62
2020/12/15 03:07:25;;;;;;;64.28;21.73;;;;;;;1.81;99.54;96316.75;4939527;28;20043;-65
2020/12/15 03:09:50;;;;;;;65.50;21.60;;;;;;;1.58;99.04;96318.03;4943885;28;20035;-63
2020/12/15 03:12:15;;;;;;;57.60;18.88;;;;;;;1.59;99.81;96308.84;4938393;28;20135;-64
2020/12/15 03:14:41;;;;;;;55.10;19.75;;;;;;;1.58;99.41;96302.63;4945316;28;20047;-64
2020/12/15 03:17:06;;;;;;;57.28;20.15;;;;;;;1.61;99.63;96320.91;4937240;28;20051;-64
2020/12/15 03:19:32;;;;;;;59.28;19.80;;;;;;;1.88;99.12;96310.88;4943973;28;20082;-64
2020/12/15 03:21:57;;;;;;;67.18;21.38;;;;;;;1.81;98.91;96315.97;4941630;28;20058;-62
2020/12/15 03:24:22;;;;;;;48.15;19.77;;;;;;;1.71;99.26;96325.16;4944716;28;20503;-63
2020/12/15 03:26:48;;;;;;;59.08;21.52;;;;;;;1.71;98.82;96322.47;4944049;28;20137;-61
2020/12/15 03:29:13;;;;;;;51.47;19.25;;;;;;;1.67;99.28;96318.84;4936632;28;20519;-62
2020/12/15 03:31:39;;;;;;;58.03;20.48;;;;;;;1.64;98.76;96322.16;4944048;28;20054;-62
2020/12/15 03:34:05;;;;;;;52.03;19.70;;;;;;;1.68;98.73;96310.41;4937826;28;20519;-63
2020/12/15 03:36:30;;;;;;;56.30;20.02;;;;;;;1.75;98.56;96309.94;4944675;28;20043;-63
2020/12/15 03:38:56;;;;;;;51.15;19.48;;;;;;;1.67;98.53;96303.41;4943593;28;20046;-62
2020/12/15 03:41:21;;;;;;;56.35;22.27;;;;;;;1.82;98.55;96310.25;4940170;28;20153;-63
2020/12/15 03:43:47;;;;;;;52.60;20.08;;;;;;;1.72;98.64;96319.47;4958326;28;20043;-64
2020/12/15 03:46:12;;;;;;;56.17;19.80;;;;;;;1.81;97.82;96324.84;4953683;28;20074;-65
2020/12/15 03:48:38;;;;;;;53.53;19.05;;;;;;;1.75;97.46;96331.53;4956885;28;20058;-67
2020/12/15 03:51:03;;;;;;;69.38;22.17;;;;;;;1.64;97.44;96333.78;4952559;28;20055;-66
2020/12/15 03:53:29;;;;;;;58.53;20.90;;;;;;;1.74;98.30;96332.66;4947310;28;20170;-62
2020/12/15 03:55:54;;;;;;;76.47;25.20;;;;;;;1.76;97.23;96330.41;4944400;28;20054;-64
2020/12/15 03:58:19;;;;;;;57.80;20.48;;;;;;;1.87;97.78;96328.19;4937448;28;20047;-66
2020/12/15 04:00:45;;;;;;;52.17;18.98;;;;;;;2.01;97.04;96328.03;4934487;28;20055;-65
2020/12/15 04:03:10;;;;;;;59.15;20.13;;;;;;;1.89;97.56;96326.78;4929845;28;20078;-62
2020/12/15 04:05:36;;;;;;;48.75;19.88;;;;;;;1.86;96.98;96332.03;4943202;28;20047;-64
2020/12/15 04:08:03;;;;;;;57.83;19.38;;;;;;;1.90;97.39;96338.34;4941681;28;20625;-64
2020/12/15 04:10:29;;;;;;;52.10;18.85;;;;;;;1.86;97.46;96340.91;4946958;28;20086;-64
2020/12/15 04:12:54;;;;;;;42.40;17.92;;;;;;;1.92;97.57;96353.13;4956967;28;20074;-61
2020/12/15 04:15:20;;;;;;;44.60;17.48;;;;;;;1.81;96.99;96357.25;4928656;28;20048;-62
2020/12/15 04:17:46;;;;;;;39.95;15.32;;;;;;;1.69;97.58;96368.72;4923773;28;20043;-63
2020/12/15 04:20:12;;;;;;;39.55;16.38;;;;;;;1.66;97.76;96363.94;4920727;28;20040;-63
2020/12/15 04:22:38;;;;;;;38.78;16.40;;;;;;;1.67;97.74;96356.63;4924508;28;20039;-62
2020/12/15 04:25:05;;;;;;;41.58;17.73;;;;;;;1.74;97.65;96345.34;4920413;28;20039;-65
2020/12/15 04:27:30;;;;;;;33.78;15.80;;;;;;;1.80;96.96;96346.78;4928668;28;20625;-64
2020/12/15 04:29:56;;;;;;;31.63;15.85;;;;;;;1.58;96.41;96345.81;4953345;28;20083;-62
2020/12/15 04:32:22;;;;;;;34.28;15.50;;;;;;;1.52;97.06;96344.41;4937344;28;20600;-62
2020/12/15 04:34:48;;;;;;;34.17;15.60;;;;;;;1.48;96.95;96346.16;4943054;28;20042;-63
2020/12/15 04:37:13;;;;;;;32.53;15.05;;;;;;;1.46;96.90;96342.94;4934042;28;20102;-64
2020/12/15 04:39:38;;;;;;;33.42;15.63;;;;;;;1.45;96.76;96341.38;4937805;28;20288;-64
2020/12/15 04:42:04;;;;;;;28.02;14.23;;;;;;;1.33;96.10;96345.50;4936352;28;20046;-64
2020/12/15 04:44:31;;;;;;;40.08;15.48;;;;;;;1.23;97.38;96353.88;4941610;28;20051;-61
2020/12/15 04:47:18;;;;;;;41.20;15.27;;;;;;;1.18;97.73;96348.63;4942177;28;20110;-63
2020/12/15 04:50:05;;;;;;;41.58;15.02;;;;;;;0.98;97.97;96362.72;4941728;28;20111;-60
2020/12/15 04:52:55;;;;;;;35.70;14.90;;;;;;;0.99;98.28;96361.59;4941541;28;20118;-64
2020/12/15 04:55:21;;;;;;;36.13;15.05;;;;;;;1.08;98.14;96365.91;4936791;28;20443;-63
2020/12/15 04:57:47;;;;;;;42.33;16.38;;;;;;;1.06;98.33;96362.75;4939104;28;20575;-62
2020/12/15 05:00:14;;;;;;;38.58;15.48;;;;;;;1.19;98.80;96361.03;4936711;28;20109;-64
2020/12/15 05:02:42;;;;;;;42.15;16.63;;;;;;;1.23;98.05;96372.75;4940653;28;20098;-64
2020/12/15 05:05:11;;;;;;;45.55;17.63;;;;;;;1.33;98.58;96379.75;4938125;28;20053;-64
2020/12/15 05:07:42;;;;;;;48.83;17.03;;;;;;;1.31;98.71;96388.19;4942417;28;20163;-62
2020/12/15 05:10:09;;;;;;;57.25;16.88;;;;;;;1.34;98.15;96390.25;4937254;28;20129;-61
2020/12/15 05:12:35;;;;;;;46.97;17.65;;;;;;;1.29;98.49;96397.69;4942282;28;20043;-63
2020/12/15 05:15:01;;;;;;;63.58;17.00;;;;;;;1.42;98.05;96401.38;4942777;28;20043;-62
2020/12/15 05:17:34;;;;;;;44.35;16.23;;;;;;;1.51;98.50;96408.38;4938934;28;20043;-61
2020/12/15 05:19:59;;;;;;;58.65;17.85;;;;;;;1.34;98.29;96408.34;4949961;28;20063;-62
2020/12/15 05:22:36;;;;;;;66.95;20.90;;;;;;;1.39;99.31;96399.28;4936327;28;20869;-63
2020/12/15 05:25:02;;;;;;;55.92;19.08;;;;;;;1.40;98.62;96396.28;4941846;28;20432;-63
2020/12/15 05:27:30;;;;;;;61.05;18.88;;;;;;;1.58;98.97;96391.72;4936980;28;20062;-60
2020/12/15 05:30:09;;;;;;;52.25;17.58;;;;;;;1.54;98.99;96396.16;4942092;28;20074;-61
2020/12/15 05:32:46;;;;;;;46.28;16.33;;;;;;;1.46;98.25;96405.84;4938038;28;20039;-60
2020/12/15 05:35:11;;;;;;;55.67;19.63;;;;;;;1.43;98.81;96398.38;4936991;28;20058;-61
2020/12/15 05:37:42;;;;;;;77.10;17.58;;;;;;;1.45;98.73;96403.44;4942545;28;20036;-60
2020/12/15 05:40:08;;;;;;;78.57;16.83;;;;;;;1.41;99.03;96410.59;4937690;28;20400;-62
2020/12/15 05:42:36;;;;;;;49.15;17.27;;;;;;;1.41;98.70;96408.69;4940393;28;20043;-64
2020/12/15 05:45:02;;;;;;;50.50;18.27;;;;;;;1.51;99.30;96407.56;4941235;28;20039;-63
2020/12/15 05:47:28;;;;;;;67.78;18.88;;;;;;;1.50;98.55;96396.00;4940113;28;20194;-62
2020/12/15 05:49:57;;;;;;;37.78;16.60;;;;;;;1.56;98.95;96390.44;4942591;28;20126;-61
2020/12/15 05:52:29;;;;;;;51.70;16.27;;;;;;;1.77;98.92;96399.53;4936187;28;20058;-63
2020/12/15 05:55:10;;;;;;;67.28;18.55;;;;;;;1.70;97.97;96393.81;4935815;28;20035;-63
2020/12/15 05:57:36;;;;;;;133.35;19.73;;;;;;;1.21;98.54;96399.28;4941178;28;20051;-63
2020/12/15 06:00:11;;;;;;;57.72;17.02;;;;;;;1.13;99.31;96397.31;4942294;28;20101;-63
2020/12/15 06:02:37;;;;;;;132.43;19.10;;;;;;;0.90;100.00;96402.00;4942469;28;20148;-63
2020/12/15 06:05:05;;;;;;;129.10;19.67;;;;;;;0.84;100.00;96398.66;4953914;28;20060;-64
2020/12/15 06:07:34;;;;;;;142.55;21.65;;;;;;;0.91;100.00;96404.38;4952504;28;20054;-64
2020/12/15 06:10:01;;;;;;;207.93;22.02;;;;;;;0.90;100.00;96416.28;4959516;28;20047;-63
2020/12/15 06:12:27;;;;;;;164.65;22.02;;;;;;;0.97;100.00;96405.03;4955922;28;20051;-64
2020/12/15 06:14:53;;;;;;;63.72;19.58;;;;;;;1.10;100.00;96424.94;4948651;28;20585;-62
2020/12/15 06:17:22;;;;;;;146.60;21.05;;;;;;;0.93;100.00;96425.66;4941046;28;20070;-64
2020/12/15 06:19:55;;;;;;;95.93;20.30;;;;;;;0.82;100.00;96421.66;4944960;28;20035;-63
2020/12/15 06:22:22;;;;;;;68.60;22.13;;;;;;;1.01;100.00;96419.50;4938283;28;20078;-61
2020/12/15 06:24:58;;;;;;;68.60;18.58;;;;;;;1.10;100.00;96417.66;4944609;28;20049;-62
2020/12/15 06:27:32;;;;;;;57.22;19.35;;;;;;;1.12;100.00;96415.41;4940633;28;20081;-64
2020/12/15 06:29:58;;;;;;;58.25;19.45;;;;;;;1.32;100.00;96424.06;4945323;28;20051;-64
2020/12/15 06:32:24;;;;;;;125.60;21.15;;;;;;;1.25;100.00;96435.28;4938104;28;20575;-64
2020/12/15 06:34:51;;;;;;;54.38;18.13;;;;;;;1.36;100.00;96433.09;4944451;28;20118;-63
2020/12/15 06:37:22;;;;;;;53.42;18.92;;;;;;;1.50;100.00;96435.69;4940197;28;20039;-63
2020/12/15 06:39:59;;;;;;;51.67;18.30;;;;;;;1.56;100.00;96444.44;4947207;28;20040;-61
2020/12/15 06:42:26;;;;;;;47.42;16.88;;;;;;;1.51;100.00;96437.25;4938069;28;20067;-63
2020/12/15 06:45:11;;;;;;;46.33;16.67;;;;;;;1.48;99.84;96444.09;4945398;28;20047;-62
2020/12/15 06:47:38;;;;;;;55.03;17.27;;;;;;;1.62;99.40;96437.75;4944353;28;20062;-63
2020/12/15 06:50:18;;;;;;;34.67;15.93;;;;;;;1.64;98.88;96439.06;4932424;28;20441;-63
2020/12/15 06:52:44;;;;;;;35.35;14.68;;;;;;;1.69;98.69;96438.91;4926741;28;20063;-63
2020/12/15 06:55:09;;;;;;;37.92;15.63;;;;;;;1.74;97.85;96432.53;4920721;28;20078;-64
2020/12/15 06:57:38;;;;;;;32.13;14.52;;;;;;;1.81;97.00;96435.56;4924195;28;20139;-62
2020/12/15 07:00:12;;;;;;;87.85;14.75;;;;;;;1.63;96.50;96442.06;4937446;28;20066;-65
2020/12/15 07:02:38;;;;;;;50.33;13.95;;;;;;;1.56;96.76;96431.72;4927542;28;20046;-63
2020/12/15 07:05:28;;;;;;;35.60;13.80;;;;;;;1.65;96.29;96427.13;4923531;28;20131;-65
2020/12/15 07:08:05;;;;;;;34.45;14.88;;;;;;;1.65;96.39;96434.44;4926156;28;20050;-63
2020/12/15 07:10:30;;;;;;;34.28;14.27;;;;;;;1.57;96.22;96441.44;4924324;29;20046;-61
2020/12/15 07:12:59;;;;;;;62.58;12.90;;;;;;;1.42;96.84;96431.06;4925512;28;20040;-62
2020/12/15 07:15:29;;;;;;;34.95;13.85;;;;;;;1.42;96.35;96433.75;4927410;28;20039;-63
2020/12/15 07:17:54;;;;;;;;;;;;;;;1.49;96.55;96439.50;4942027;28;20054;-62
2020/12/15 07:20:21;;;;;;;76.53;17.13;;;;;;;0.77;96.96;96436.03;4938505;28;19922;-62
2020/12/15 07:22:47;;;;;;;81.55;21.10;;;;;;;0.74;98.03;96442.06;4941100;28;20036;-63
2020/12/15 07:25:14;;;;;;;56.05;15.95;;;;;;;0.63;98.52;96451.50;4936684;28;20043;-64
2020/12/15 07:27:41;;;;;;;69.75;15.00;;;;;;;0.46;99.39;96444.13;4941790;28;20055;-63
2020/12/15 07:30:11;;;;;;;118.28;20.75;;;;;;;0.43;100.00;96437.44;4939219;28;20412;-61
2020/12/15 07:32:37;;;;;;;;;;;;;;;0.53;100.00;96441.78;4944681;28;20075;-64
2020/12/15 07:35:08;;;;;;;106.60;18.20;;;;;;;0.51;100.00;96449.38;4940978;28;19914;-61
2020/12/15 07:37:41;;;;;;;54.50;17.95;;;;;;;0.56;100.00;96455.44;4950551;28;20140;-62
2020/12/15 07:40:12;;;;;;;52.92;15.82;;;;;;;0.67;100.00;96472.16;4937149;28;20035;-62
2020/12/15 07:42:38;;;;;;;42.10;16.92;;;;;;;0.76;100.00;96464.13;4940509;28;20431;-62
2020/12/15 07:45:07;;;;;;;107.95;19.63;;;;;;;0.48;100.00;96455.38;4943883;28;20133;-65
2020/12/15 07:47:43;;;;;;;119.30;18.75;;;;;;;0.51;100.00;96469.03;4945957;28;20058;-61
2020/12/15 07:50:10;;;;;;;166.13;20.92;;;;;;;0.33;100.00;96473.50;4941229;28;20090;-62
2020/12/15 07:52:37;;;;;;;133.75;20.05;;;;;;;0.42;100.00;96478.97;4950163;28;20759;-61
2020/12/15 07:55:03;;;;;;;107.45;18.88;;;;;;;0.41;100.00;96479.28;4943727;28;20062;-64
2020/12/15 07:57:32;;;;;;;55.22;18.25;;;;;;;0.68;100.00;96491.81;4942777;28;20042;-61
2020/12/15 08:00:02;;;;;;;58.53;19.67;;;;;;;0.92;100.00;96489.59;4944947;28;20043;-60
2020/12/15 08:02:28;;;;;;;56.13;19.08;;;;;;;1.09;100.00;96488.09;4940862;28;20054;-63
2020/12/15 08:05:04;;;;;;;54.72;19.13;;;;;;;1.34;100.00;96476.59;4943495;28;20036;-63
2020/12/15 08:07:29;;;;;;;139.27;20.02;;;;;;;1.35;100.00;96480.06;4940705;28;20134;-62
2020/12/15 08:09:59;;;;;;;50.22;17.65;;;;;;;1.59;100.00;96476.22;4943129;28;20493;-63
2020/12/15 08:12:27;;;;;;;50.83;18.33;;;;;;;1.79;99.53;96480.22;4936371;28;20676;-63
2020/12/15 08:14:54;;;;;;;53.85;20.98;;;;;;;1.90;98.12;96476.88;4942173;28;20054;-62
2020/12/15 08:17:20;;;;;;;44.15;19.23;;;;;;;2.01;97.25;96471.19;4935950;28;20043;-61
2020/12/15 08:19:45;;;;;;;42.13;17.30;;;;;;;2.07;96.78;96480.72;4942920;28;20090;-63
2020/12/15 08:22:17;;;;;;;45.30;15.82;;;;;;;2.13;95.20;96487.56;4937962;28;20098;-63
2020/12/15 08:24:47;;;;;;;39.88;15.73;;;;;;;2.18;94.88;96500.13;4943325;28;20737;-62
2020/12/15 08:27:12;;;;;;;36.10;14.80;;;;;;;2.24;94.88;96499.66;4936467;28;20082;-64
2020/12/15 08:29:37;;;;;;;30.40;12.88;;;;;;;2.37;94.04;96500.59;4942915;28;20047;-65
2020/12/15 08:32:03;;;;;;;30.63;14.88;;;;;;;2.54;93.20;96501.72;4949709;28;20409;-65
2020/12/15 08:34:28;;;;;;;30.17;13.60;;;;;;;2.61;93.08;96500.13;4953582;28;20039;-64
2020/12/15 08:36:54;;;;;;;32.83;14.00;;;;;;;2.73;91.66;96498.69;4954202;28;20038;-63
2020/12/15 08:39:23;;;;;;;30.00;13.95;;;;;;;2.59;91.26;96498.84;4951807;28;20049;-63
2020/12/15 08:41:56;;;;;;;37.70;13.90;;;;;;;2.04;93.38;96490.25;4948496;28;20054;-63
2020/12/15 08:44:23;;;;;;;31.48;15.63;;;;;;;2.15;93.71;96482.63;4934820;28;22449;-63
2020/12/15 08:46:56;;;;;;;36.38;15.32;;;;;;;2.49;93.58;96492.66;4923833;28;20115;-61
2020/12/15 08:49:23;;;;;;;37.88;15.60;;;;;;;2.69;92.40;96493.13;4935410;28;20074;-61
2020/12/15 08:51:50;;;;;;;31.73;14.52;;;;;;;2.89;91.68;96494.34;4942297;28;20050;-62
2020/12/15 08:54:17;;;;;;;34.92;14.48;;;;;;;3.08;90.63;96498.59;4935292;28;20039;-63
2020/12/15 08:56:43;;;;;;;30.92;14.40;;;;;;;3.16;90.47;96489.66;4943216;28;20042;-62
2020/12/15 08:59:10;;;;;;;32.97;14.55;;;;;;;3.19;90.58;96499.88;4934071;28;20106;-63
2020/12/15 09:01:36;;;;;;;34.30;15.20;;;;;;;3.30;90.35;96506.50;4942575;28;20045;-65
2020/12/15 09:04:01;;;;;;;30.45;13.05;;;;;;;3.44;89.95;96504.38;4939087;28;20050;-63
2020/12/15 09:06:53;;;;;;;33.35;15.00;;;;;;;3.42;89.65;96514.75;4938224;28;20043;-62
2020/12/15 09:09:27;;;;;;;32.88;14.43;;;;;;;3.47;89.77;96515.66;4934719;28;20497;-62
2020/12/15 09:11:56;;;;;;;30.65;14.18;;;;;;;3.39;89.27;96509.97;4939765;28;20492;-62
2020/12/15 09:14:23;;;;;;;28.55;13.98;;;;;;;3.42;89.48;96505.81;4932277;28;20063;-60
2020/12/15 09:16:48;;;;;;;32.80;14.32;;;;;;;3.42;89.21;96500.38;4942919;28;20046;-63
2020/12/15 09:19:16;;;;;;;35.88;15.32;;;;;;;3.16;90.26;96497.78;4935944;28;20043;-62
2020/12/15 09:21:43;;;;;;;36.08;17.33;;;;;;;3.03;90.86;96502.28;4942371;28;20404;-62
2020/12/15 09:24:09;;;;;;;34.25;14.15;;;;;;;2.80;92.13;96502.47;4936707;28;20047;-63
2020/12/15 09:26:40;;;;;;;27.98;14.48;;;;;;;2.85;92.20;96505.03;4942327;28;20485;-63
2020/12/15 09:29:08;;;;;;;37.08;15.93;;;;;;;2.98;91.87;96508.66;4935328;28;20043;-62
2020/12/15 09:31:34;;;;;;;36.75;16.27;;;;;;;3.00;92.07;96509.13;4942031;28;20051;-63
2020/12/15 09:33:59;;;;;;;34.33;15.38;;;;;;;3.14;92.35;96513.56;4941498;28;20054;-62
2020/12/15 09:36:25;;;;;;;37.15;17.10;;;;;;;3.05;92.64;96521.69;4947965;28;20052;-63
2020/12/15 09:38:50;;;;;;;35.50;15.68;;;;;;;3.13;92.15;96518.16;4943779;28;20047;-63
2020/12/15 09:41:16;;;;;;;38.40;15.20;;;;;;;3.38;91.95;96516.50;4942394;28;20050;-62
2020/12/15 09:43:41;;;;;;;34.20;14.98;;;;;;;3.48;90.82;96517.28;4948907;28;20445;-62
2020/12/15 09:46:07;;;;;;;37.25;16.02;;;;;;;3.58;90.77;96520.41;4939834;28;20043;-61
2020/12/15 09:48:32;;;;;;;38.58;16.25;;;;;;;3.54;90.21;96513.25;4943124;28;20142;-61
2020/12/15 09:50:58;;;;;;;45.13;15.55;;;;;;;3.08;92.45;96512.13;4946510;28;20134;-63
2020/12/15 09:53:24;;;;;;;37.08;17.10;;;;;;;3.28;92.24;96514.16;4940749;28;20870;-61
2020/12/15 09:55:49;;;;;;;45.50;21.50;;;;;;;3.49;92.01;96516.13;4945829;28;20070;-62
2020/12/15 09:58:15;;;;;;;41.30;18.67;;;;;;;3.66;91.41;96507.94;4939130;28;20478;-62
2020/12/15 10:00:40;;;;;;;32.55;14.25;;;;;;;3.80;91.13;96510.44;4941761;28;20141;-63
2020/12/15 10:03:06;;;;;;;38.13;15.63;;;;;;;3.23;91.90;96519.75;4938618;28;20193;-63
2020/12/15 10:05:31;;;;;;;46.60;16.65;;;;;;;3.15;92.38;96525.97;4945463;28;20070;-61
2020/12/15 10:07:56;;;;;;;38.63;16.00;;;;;;;3.43;91.58;96537.97;4943741;28;20075;-62
2020/12/15 10:10:22;;;;;;;42.92;16.83;;;;;;;3.43;90.67;96540.69;4940149;28;20051;-62
2020/12/15 10:12:47;;;;;;;40.63;16.13;;;;;;;3.51;91.12;96536.38;4943931;28;20047;-61
2020/12/15 10:15:13;;;;;;;39.50;17.00;;;;;;;3.60;90.98;96539.84;4935333;28;20436;-60
2020/12/15 10:17:39;;;;;;;39.28;17.10;;;;;;;3.60;90.86;96536.31;4941075;28;20101;-62
2020/12/15 10:20:05;;;;;;;51.95;18.45;;;;;;;3.18;92.61;96528.81;4940001;28;20126;-62
2020/12/15 10:22:30;;;;;;;41.30;16.85;;;;;;;3.45;92.82;96540.38;4944898;28;20190;-59
2020/12/15 10:24:56;;;;;;;57.45;17.92;;;;;;;3.59;91.81;96535.53;4944511;28;20126;-62
2020/12/15 10:27:21;;;;;;;34.47;16.00;;;;;;;3.39;92.12;96528.91;4937377;28;20502;-61
2020/12/15 10:29:47;;;;;;;37.58;15.50;;;;;;;3.39;91.64;96526.22;4944520;28;20043;-63
2020/12/15 10:32:12;;;;;;;37.05;15.40;;;;;;;3.55;92.38;96533.81;4938151;28;20122;-61
2020/12/15 10:34:37;;;;;;;36.58;13.88;;;;;;;3.71;91.76;96526.72;4944765;28;20125;-62
2020/12/15 10:37:03;;;;;;;83.40;17.35;;;;;;;3.59;90.87;96527.41;4941763;28;20039;-65
2020/12/15 10:39:28;;;;;;;40.50;16.42;;;;;;;3.43;91.80;96523.66;4941398;28;20193;-62
2020/12/15 10:41:54;;;;;;;35.17;16.23;;;;;;;3.37;91.88;96531.16;4944729;28;20619;-63
2020/12/15 10:44:19;;;;;;;37.47;15.25;;;;;;;3.58;92.47;96531.25;4937848;28;20046;-62
2020/12/15 10:46:45;;;;;;;37.20;17.02;;;;;;;3.85;92.19;96534.59;4935521;28;20058;-61
2020/12/15 10:49:12;;;;;;;38.42;16.05;;;;;;;3.43;91.92;96527.16;4933703;28;20046;-62
2020/12/15 10:51:38;;;;;;;35.70;16.00;;;;;;;3.80;91.36;96526.69;4944054;28;20516;-62
2020/12/15 10:54:04;;;;;;;35.75;16.73;;;;;;;4.06;90.75;96521.09;4942196;28;20055;-64
2020/12/15 10:56:30;;;;;;;38.17;15.88;;;;;;;4.30;89.35;96527.81;4953800;28;20127;-63
2020/12/15 10:58:55;;;;;;;29.90;14.32;;;;;;;4.51;88.54;96528.59;4959831;28;20058;-63
2020/12/15 11:01:21;;;;;;;34.17;15.57;;;;;;;4.59;88.40;96516.91;4946932;28;20051;-63
2020/12/15 11:03:47;;;;;;;71.15;17.30;;;;;;;3.50;91.61;96523.94;4938432;28;20126;-63
2020/12/15 11:06:12;;;;;;;47.15;18.33;;;;;;;3.35;92.97;96525.28;4932981;28;20485;-61
2020/12/15 11:08:39;;;;;;;49.78;18.10;;;;;;;3.45;93.66;96530.31;4942442;28;20043;-62
2020/12/15 11:11:04;;;;;;;36.92;16.52;;;;;;;4.09;92.11;96534.00;4939282;28;20110;-64
2020/12/15 11:13:30;;;;;;;32.97;15.02;;;;;;;4.38;90.82;96526.97;4941934;28;20139;-61
2020/12/15 11:15:55;;;;;;;35.90;15.88;;;;;;;4.34;88.92;96526.00;4943090;28;20106;-63
2020/12/15 11:18:20;;;;;;;40.03;17.80;;;;;;;4.38;88.66;96522.31;4937649;28;20138;-63
2020/12/15 11:20:46;;;;;;;36.70;14.68;;;;;;;4.21;88.73;96517.00;4942298;28;20054;-63
2020/12/15 11:23:11;;;;;;;53.33;16.58;;;;;;;3.65;91.75;96511.75;4939583;28;20039;-63
2020/12/15 11:25:36;;;;;;;34.90;15.73;;;;;;;4.06;91.56;96515.69;4942693;28;20061;-63